Time;durP1;ratioP1;P1;durP2;ratioP2;P2;SDS_P1;SDS_P2;PMS_P1;PMS_P2;Temp;Humidity;BMP_temperature;BMP_pressure;BME280_temperature;BME280_humidity;BME280_pressure;Samples;Min_cycle;Max_cycle;Signal;HPM_P1;HPM_P2
2024/01/18 00:00:05;;;;;;;104.80;43.60;;;-0.20;99.90;;;;;;5042053;28;20231;-63
2024/01/18 00:02:35;;;;;;;60.30;30.57;;;-0.20;99.90;;;;;;5044324;28;20706;-63
2024/01/18 00:05:06;;;;;;;67.53;31.77;;;-0.20;99.90;;;;;;5046385;28;20208;-63
2024/01/18 00:07:34;;;;;;;62.93;30.27;;;-0.30;99.90;;;;;;5042818;28;20185;-63
2024/01/18 00:10:02;;;;;;;59.03;29.87;;;-0.30;99.90;;;;;;5040234;28;20792;-63
2024/01/18 00:12:31;;;;;;;67.83;33.23;;;-0.30;99.90;;;;;;5041015;28;20233;-63
2024/01/18 00:14:59;;;;;;;69.10;33.77;;;-0.30;99.90;;;;;;5044641;28;20208;-63
2024/01/18 00:17:28;;;;;;;66.50;32.13;;;-0.30;99.90;;;;;;5042278;28;20244;-63
2024/01/18 00:19:56;;;;;;;68.03;32.30;;;-0.30;99.90;;;;;;5045214;28;20197;-63
2024/01/18 00:22:26;;;;;;;63.43;32.57;;;-0.30;99.90;;;;;;5043714;28;20699;-63
2024/01/18 00:24:54;;;;;;;63.87;32.60;;;-0.30;99.90;;;;;;5043355;28;21686;-63
2024/01/18 00:27:22;;;;;;;68.47;32.30;;;-0.30;99.90;;;;;;5041107;28;20590;-63
2024/01/18 00:29:51;;;;;;;57.83;29.93;;;-0.30;99.90;;;;;;5040118;28;20340;-63
2024/01/18 00:32:19;;;;;;;57.03;29.33;;;-0.30;99.90;;;;;;5038782;28;20206;-63
2024/01/18 00:34:47;;;;;;;51.27;27.47;;;-0.30;99.90;;;;;;5047428;28;20207;-63
2024/01/18 00:37:15;;;;;;;53.43;27.00;;;-0.30;99.90;;;;;;5042957;28;20582;-63
2024/01/18 00:39:45;;;;;;;57.37;27.40;;;-0.30;99.90;;;;;;5042226;28;20275;-63
2024/01/18 00:42:13;;;;;;;54.13;26.07;;;-0.30;99.90;;;;;;5041302;28;20216;-63
2024/01/18 00:44:41;;;;;;;51.93;26.50;;;-0.30;99.90;;;;;;5041807;28;20248;-63
2024/01/18 00:47:09;;;;;;;51.03;26.73;;;-0.40;99.90;;;;;;5046825;28;20204;-63
2024/01/18 00:49:38;;;;;;;51.23;26.40;;;-0.40;99.90;;;;;;5058958;28;20219;-63
2024/01/18 00:52:06;;;;;;;52.60;26.30;;;-0.40;99.90;;;;;;5045029;28;20734;-63
2024/01/18 00:54:35;;;;;;;51.50;25.97;;;-0.40;99.90;;;;;;5047497;28;20216;-63
2024/01/18 00:57:04;;;;;;;50.23;25.07;;;-0.40;99.90;;;;;;5041376;28;20576;-63
2024/01/18 00:59:33;;;;;;;46.47;25.63;;;-0.50;99.90;;;;;;5048061;28;20290;-63
2024/01/18 01:02:03;;;;;;;50.07;26.00;;;-0.50;99.90;;;;;;5043804;28;20296;-62
2024/01/18 01:04:31;;;;;;;49.60;26.10;;;-0.50;99.90;;;;;;5046054;28;20197;-63
2024/01/18 01:07:00;;;;;;;47.33;25.30;;;-0.50;99.90;;;;;;5041040;28;20274;-63
2024/01/18 01:09:29;;;;;;;47.73;25.57;;;-0.50;99.90;;;;;;5045724;28;20216;-63
2024/01/18 01:11:57;;;;;;;50.53;24.43;;;-0.50;99.90;;;;;;5046268;28;20745;-63
2024/01/18 01:14:27;;;;;;;47.63;24.50;;;-0.50;99.90;;;;;;5044406;28;20281;-63
2024/01/18 01:16:55;;;;;;;48.40;23.50;;;-0.50;99.90;;;;;;5044681;28;20189;-63
2024/01/18 01:19:23;;;;;;;49.93;23.80;;;-0.50;99.90;;;;;;5039243;28;20778;-63
2024/01/18 01:21:51;;;;;;;43.87;22.80;;;-0.50;99.90;;;;;;5045459;28;20220;-64
2024/01/18 01:24:20;;;;;;;41.53;23.63;;;-0.50;99.90;;;;;;5043865;28;20228;-63
2024/01/18 01:26:48;;;;;;;50.87;26.17;;;-0.50;99.90;;;;;;5046032;28;20253;-64
2024/01/18 01:29:16;;;;;;;47.10;24.63;;;-0.50;99.90;;;;;;5044350;28;20307;-63
2024/01/18 01:31:45;;;;;;;54.20;24.77;;;-0.50;99.90;;;;;;5061455;28;20190;-63
2024/01/18 01:34:14;;;;;;;41.30;22.80;;;-0.50;99.90;;;;;;5048316;28;20224;-63
2024/01/18 01:36:42;;;;;;;45.17;23.57;;;-0.50;99.90;;;;;;5040725;28;20236;-63
2024/01/18 01:39:10;;;;;;;48.53;23.63;;;-0.50;99.90;;;;;;5044461;28;20244;-63
2024/01/18 01:41:39;;;;;;;39.43;21.60;;;-0.50;99.90;;;;;;5046160;28;20228;-63
2024/01/18 01:44:07;;;;;;;44.53;21.87;;;-0.50;99.90;;;;;;5043572;28;20200;-62
2024/01/18 01:46:35;;;;;;;50.83;23.17;;;-0.60;99.90;;;;;;5044615;28;20191;-63
2024/01/18 01:49:06;;;;;;;47.40;23.50;;;-0.60;99.90;;;;;;5044434;28;20746;-63
2024/01/18 01:51:42;;;;;;;44.43;23.27;;;-0.60;99.90;;;;;;5042867;28;20671;-63
2024/01/18 01:54:11;;;;;;;43.70;21.67;;;-0.60;99.90;;;;;;5043054;28;20710;-64
2024/01/18 01:56:39;;;;;;;44.47;22.63;;;-0.70;99.90;;;;;;5043120;28;20224;-64
2024/01/18 01:59:10;;;;;;;41.17;21.77;;;-0.70;99.90;;;;;;5043386;28;20203;-63
2024/01/18 02:01:41;;;;;;;40.10;21.63;;;-0.70;99.90;;;;;;5048317;28;20185;-63
2024/01/18 02:04:11;;;;;;;40.63;21.70;;;-0.70;99.90;;;;;;5044471;28;20316;-63
2024/01/18 02:06:44;;;;;;;39.83;21.80;;;-0.80;99.90;;;;;;5047236;28;20249;-64
2024/01/18 02:09:13;;;;;;;40.50;21.33;;;-0.80;99.90;;;;;;5044569;28;20225;-63
2024/01/18 02:11:41;;;;;;;41.47;21.53;;;-0.80;99.90;;;;;;5043812;28;20263;-64
2024/01/18 02:14:10;;;;;;;43.23;21.80;;;-0.80;99.90;;;;;;5046668;28;20279;-63
2024/01/18 02:16:38;;;;;;;40.03;20.97;;;-0.80;99.90;;;;;;5044038;28;20268;-63
2024/01/18 02:19:07;;;;;;;41.87;20.77;;;-0.80;99.90;;;;;;5041120;28;20212;-64
2024/01/18 02:21:37;;;;;;;41.97;20.77;;;-0.80;99.90;;;;;;5040968;28;20274;-64
2024/01/18 02:24:11;;;;;;;45.93;22.13;;;-0.80;99.90;;;;;;5042770;28;20312;-63
2024/01/18 02:26:41;;;;;;;41.97;21.20;;;-0.70;99.90;;;;;;5063416;28;20235;-63
2024/01/18 02:29:09;;;;;;;39.00;21.17;;;-0.70;99.90;;;;;;5042475;28;20223;-63
2024/01/18 02:31:37;;;;;;;38.40;20.47;;;-0.70;99.90;;;;;;5046980;28;20539;-63
2024/01/18 02:34:09;;;;;;;43.33;21.00;;;-0.80;99.90;;;;;;5046257;28;20216;-64
2024/01/18 02:36:38;;;;;;;40.07;21.77;;;-0.70;99.90;;;;;;5046374;28;20675;-63
2024/01/18 02:39:06;;;;;;;41.87;21.00;;;-0.70;99.90;;;;;;5043963;28;20212;-63
2024/01/18 02:41:35;;;;;;;43.87;21.43;;;-0.70;99.90;;;;;;5044145;28;20228;-63
2024/01/18 02:44:05;;;;;;;46.67;21.40;;;-0.70;99.90;;;;;;5047611;28;20543;-63
2024/01/18 02:46:33;;;;;;;44.03;21.63;;;-0.70;99.90;;;;;;5045346;28;20206;-64
2024/01/18 02:49:04;;;;;;;42.80;20.63;;;-0.70;99.90;;;;;;5040937;28;20248;-63
2024/01/18 02:51:32;;;;;;;41.80;20.33;;;-0.70;99.90;;;;;;5044494;28;20217;-64
2024/01/18 02:54:01;;;;;;;46.23;21.33;;;-0.70;99.90;;;;;;5042601;28;20687;-63
2024/01/18 02:56:29;;;;;;;39.20;21.13;;;-0.70;99.90;;;;;;5042842;28;20587;-63
2024/01/18 02:58:58;;;;;;;43.53;20.87;;;-0.70;99.90;;;;;;5040437;28;20283;-63
2024/01/18 03:01:27;;;;;;;37.70;20.57;;;-0.70;99.90;;;;;;5046791;28;20220;-63
2024/01/18 03:03:56;;;;;;;37.00;19.60;;;-0.70;99.90;;;;;;5043222;28;20243;-63
2024/01/18 03:06:24;;;;;;;38.33;21.80;;;-0.70;99.90;;;;;;5044045;28;20225;-64
2024/01/18 03:08:52;;;;;;;43.00;21.60;;;-0.70;99.90;;;;;;5046800;28;20240;-64
2024/01/18 03:11:21;;;;;;;40.70;20.27;;;-0.80;99.90;;;;;;5040252;28;20223;-63
2024/01/18 03:13:49;;;;;;;40.20;20.30;;;-0.80;99.90;;;;;;5041280;28;20250;-63
2024/01/18 03:16:17;;;;;;;37.20;19.70;;;-0.80;99.90;;;;;;5041968;28;20228;-63
2024/01/18 03:18:47;;;;;;;37.97;20.63;;;-0.80;99.90;;;;;;5047647;28;20223;-63
2024/01/18 03:21:16;;;;;;;38.10;19.80;;;-0.80;99.90;;;;;;5040234;28;20212;-64
2024/01/18 03:23:44;;;;;;;40.73;20.40;;;-0.80;99.90;;;;;;5042060;28;20236;-64
2024/01/18 03:26:12;;;;;;;34.33;19.57;;;-0.80;99.90;;;;;;5042854;28;20233;-63
2024/01/18 03:28:40;;;;;;;40.67;20.87;;;-0.90;99.90;;;;;;5046126;28;20226;-64
2024/01/18 03:31:11;;;;;;;36.07;19.40;;;-0.90;99.90;;;;;;5042870;28;20276;-63
2024/01/18 03:33:40;;;;;;;37.10;20.03;;;-0.90;99.90;;;;;;5039880;28;20225;-64
2024/01/18 03:36:10;;;;;;;37.63;20.10;;;-0.90;99.90;;;;;;5058919;28;20225;-63
2024/01/18 03:38:39;;;;;;;34.77;19.83;;;-0.90;99.90;;;;;;5037376;28;20260;-63
2024/01/18 03:41:07;;;;;;;38.27;20.00;;;-1.00;99.90;;;;;;5042701;28;20191;-63
2024/01/18 03:43:35;;;;;;;35.27;20.33;;;-1.00;99.90;;;;;;5039843;28;20215;-64
2024/01/18 03:46:07;;;;;;;34.03;19.07;;;-1.00;99.90;;;;;;5038473;28;20303;-64
2024/01/18 03:48:36;;;;;;;34.20;18.93;;;-1.00;99.90;;;;;;5042113;28;20242;-63
2024/01/18 03:51:06;;;;;;;35.47;19.37;;;-1.10;99.90;;;;;;5040592;28;20711;-63
2024/01/18 03:53:37;;;;;;;36.00;18.97;;;-1.10;99.90;;;;;;5042110;28;20322;-64
2024/01/18 03:56:05;;;;;;;33.97;19.50;;;-1.10;99.90;;;;;;5038271;28;20211;-64
2024/01/18 03:58:34;;;;;;;37.67;19.80;;;-1.10;99.90;;;;;;5040196;28;20200;-64
2024/01/18 04:01:04;;;;;;;42.13;20.70;;;-1.10;99.90;;;;;;5038294;28;20220;-64
2024/01/18 04:03:33;;;;;;;35.37;19.10;;;-1.10;99.90;;;;;;5039923;28;20552;-64
2024/01/18 04:06:01;;;;;;;38.73;20.27;;;-1.10;99.90;;;;;;5054274;28;20288;-64
2024/01/18 04:08:30;;;;;;;38.60;19.93;;;-1.10;99.90;;;;;;5040838;28;20226;-64
2024/01/18 04:11:02;;;;;;;42.57;20.73;;;-1.20;99.90;;;;;;5040855;28;20209;-64
2024/01/18 04:13:30;;;;;;;38.07;20.30;;;-1.20;99.90;;;;;;5040935;28;20235;-64
2024/01/18 04:15:58;;;;;;;44.10;21.30;;;-1.20;99.90;;;;;;5040086;28;20221;-64
2024/01/18 04:18:26;;;;;;;36.10;20.37;;;-1.20;99.90;;;;;;5042638;28;20645;-64
2024/01/18 04:20:55;;;;;;;38.07;19.70;;;-1.20;99.90;;;;;;5037791;28;20217;-64
2024/01/18 04:23:23;;;;;;;38.13;20.37;;;-1.20;99.90;;;;;;5055760;28;20221;-64
2024/01/18 04:25:52;;;;;;;38.10;20.37;;;-1.20;99.90;;;;;;5046133;28;20639;-64
2024/01/18 04:28:22;;;;;;;35.53;19.87;;;-1.20;99.90;;;;;;5041386;28;20235;-64
2024/01/18 04:30:50;;;;;;;36.00;19.60;;;-1.30;99.90;;;;;;5042945;28;20813;-64
2024/01/18 04:33:19;;;;;;;36.30;19.37;;;-1.30;99.90;;;;;;5041231;28;20219;-64
2024/01/18 04:35:47;;;;;;;41.63;19.70;;;-1.30;99.90;;;;;;5042707;28;20220;-64
2024/01/18 04:38:15;;;;;;;39.23;21.00;;;-1.40;99.90;;;;;;5041155;28;20200;-63
2024/01/18 04:40:44;;;;;;;37.57;19.27;;;-1.50;99.90;;;;;;5059220;28;20706;-64
2024/01/18 04:43:13;;;;;;;38.37;18.90;;;-1.50;99.90;;;;;;5043142;28;20219;-64
2024/01/18 04:45:43;;;;;;;36.00;19.33;;;-1.60;99.90;;;;;;5042890;28;20227;-64
2024/01/18 04:48:11;;;;;;;37.83;19.57;;;-1.70;99.90;;;;;;5040663;28;20225;-63
2024/01/18 04:50:40;;;;;;;35.30;18.87;;;-1.80;99.90;;;;;;5036772;28;20615;-64
2024/01/18 04:53:08;;;;;;;37.47;20.90;;;-1.90;99.90;;;;;;5040574;28;20213;-63
2024/01/18 04:55:36;;;;;;;42.27;21.10;;;-2.00;99.90;;;;;;5040843;28;20189;-64
2024/01/18 04:58:04;;;;;;;38.70;19.60;;;-2.20;99.90;;;;;;5040891;28;20228;-64
2024/01/18 05:00:33;;;;;;;39.53;20.00;;;-2.30;99.90;;;;;;5042598;28;20217;-64
2024/01/18 05:03:03;;;;;;;38.97;20.20;;;-2.40;99.90;;;;;;5040192;28;20299;-64
2024/01/18 05:05:32;;;;;;;36.60;18.73;;;-2.50;99.90;;;;;;5037779;28;20228;-64
2024/01/18 05:08:00;;;;;;;40.70;19.13;;;-2.60;99.90;;;;;;5040288;28;20185;-64
2024/01/18 05:10:29;;;;;;;36.17;18.87;;;-2.60;99.90;;;;;;5037957;28;20296;-64
2024/01/18 05:12:57;;;;;;;39.63;18.00;;;-2.70;99.90;;;;;;5040170;28;20224;-64
2024/01/18 05:15:25;;;;;;;41.60;19.00;;;-2.80;99.90;;;;;;5042688;28;20241;-64
2024/01/18 05:17:55;;;;;;;37.63;19.17;;;-2.90;99.90;;;;;;5043163;28;20316;-64
2024/01/18 05:20:27;;;;;;;38.87;19.37;;;-3.00;99.90;;;;;;5040328;28;20212;-64
2024/01/18 05:22:56;;;;;;;39.73;19.40;;;-3.00;99.90;;;;;;5040213;28;20192;-64
2024/01/18 05:25:24;;;;;;;32.17;19.10;;;-3.10;99.90;;;;;;5042245;28;20232;-64
2024/01/18 05:27:52;;;;;;;44.07;20.77;;;-3.20;99.90;;;;;;5039879;28;20233;-64
2024/01/18 05:30:22;;;;;;;39.90;19.83;;;-3.30;99.90;;;;;;5041111;28;20308;-64
2024/01/18 05:32:50;;;;;;;37.00;19.53;;;-3.40;99.90;;;;;;5045176;28;20225;-64
2024/01/18 05:35:19;;;;;;;37.63;19.47;;;-3.50;99.90;;;;;;5045921;28;20579;-64
2024/01/18 05:37:49;;;;;;;38.40;18.87;;;-3.50;99.90;;;;;;5044366;28;20194;-64
2024/01/18 05:40:17;;;;;;;37.60;18.63;;;-3.60;99.90;;;;;;5039243;28;20274;-64
2024/01/18 05:42:45;;;;;;;35.17;18.03;;;-3.60;99.90;;;;;;5046677;28;20229;-64
2024/01/18 05:45:14;;;;;;;38.57;18.57;;;-3.60;99.90;;;;;;5044971;28;20262;-64
2024/01/18 05:47:42;;;;;;;33.43;17.27;;;-3.60;99.90;;;;;;5046258;28;20220;-64
2024/01/18 05:50:11;;;;;;;38.30;19.40;;;-3.70;99.90;;;;;;5048220;28;20193;-64
2024/01/18 05:52:39;;;;;;;33.43;18.23;;;-3.80;99.90;;;;;;5043994;28;20595;-64
2024/01/18 05:55:09;;;;;;;31.00;16.67;;;-3.80;99.90;;;;;;5044821;28;20217;-64
2024/01/18 05:57:38;;;;;;;39.17;18.83;;;-3.80;99.90;;;;;;5042970;28;20698;-63
2024/01/18 06:00:08;;;;;;;38.47;19.10;;;-3.90;99.90;;;;;;5040764;28;20221;-64
2024/01/18 06:02:37;;;;;;;31.07;16.93;;;-4.00;99.90;;;;;;5043673;28;20250;-64
2024/01/18 06:05:07;;;;;;;37.77;17.33;;;-4.00;99.90;;;;;;5044283;28;20219;-64
2024/01/18 06:07:39;;;;;;;39.23;17.67;;;-4.10;99.90;;;;;;5047855;28;20219;-64
2024/01/18 06:10:10;;;;;;;30.23;16.17;;;-4.20;99.90;;;;;;5042973;28;20216;-64
2024/01/18 06:12:38;;;;;;;34.07;18.20;;;-4.20;99.90;;;;;;5044712;28;20838;-64
2024/01/18 06:15:07;;;;;;;35.53;18.23;;;-4.30;99.90;;;;;;5042784;28;20722;-64
2024/01/18 06:17:36;;;;;;;34.83;17.43;;;-4.30;99.90;;;;;;5043841;28;20217;-64
2024/01/18 06:20:06;;;;;;;36.17;17.83;;;-4.40;99.90;;;;;;5043520;28;20208;-63
2024/01/18 06:22:34;;;;;;;43.00;19.70;;;-4.40;99.90;;;;;;5044800;28;20294;-64
2024/01/18 06:25:03;;;;;;;36.80;18.83;;;-4.40;99.90;;;;;;5043511;28;20219;-64
2024/01/18 06:27:33;;;;;;;43.10;20.40;;;-4.50;99.90;;;;;;5044090;28;20231;-64
2024/01/18 06:30:01;;;;;;;45.27;21.23;;;-4.50;99.90;;;;;;5045230;28;20213;-64
2024/01/18 06:32:30;;;;;;;38.13;19.07;;;-4.60;99.90;;;;;;5044004;28;20224;-63
2024/01/18 06:34:59;;;;;;;37.50;19.47;;;-4.60;99.90;;;;;;5044400;28;20583;-64
2024/01/18 06:37:27;;;;;;;43.47;20.30;;;-4.70;99.90;;;;;;5044432;28;20623;-64
2024/01/18 06:39:55;;;;;;;47.13;22.53;;;-4.70;99.90;;;;;;5046995;28;20221;-64
2024/01/18 06:42:23;;;;;;;49.67;22.20;;;-4.70;99.90;;;;;;5044252;28;20212;-64
2024/01/18 06:44:53;;;;;;;45.47;20.57;;;-4.70;99.90;;;;;;5040021;28;20218;-63
2024/01/18 06:47:21;;;;;;;39.83;20.40;;;-4.70;99.90;;;;;;5058600;28;20272;-63
2024/01/18 06:49:50;;;;;;;51.10;22.63;;;-4.70;99.90;;;;;;5045657;28;20204;-63
2024/01/18 06:52:18;;;;;;;49.63;22.47;;;-4.70;99.90;;;;;;5044673;28;20217;-64
2024/01/18 06:54:46;;;;;;;49.90;21.33;;;-4.70;99.90;;;;;;5045572;28;20225;-64
2024/01/18 06:57:15;;;;;;;51.57;22.03;;;-4.80;99.90;;;;;;5045187;28;20654;-64
2024/01/18 06:59:46;;;;;;;46.80;21.20;;;-4.90;99.90;;;;;;5058530;28;20220;-64
2024/01/18 07:02:16;;;;;;;47.33;20.50;;;-4.90;99.90;;;;;;5044939;28;20695;-64
2024/01/18 07:04:44;;;;;;;47.50;20.70;;;-4.90;99.90;;;;;;5040158;28;20189;-64
2024/01/18 07:07:12;;;;;;;53.17;21.53;;;-4.90;99.90;;;;;;5042813;28;20232;-64
2024/01/18 07:09:40;;;;;;;52.10;21.23;;;-4.90;99.90;;;;;;5043100;28;20232;-64
2024/01/18 07:12:10;;;;;;;49.17;19.97;;;-4.80;99.90;;;;;;5038224;28;20307;-64
2024/01/18 07:14:39;;;;;;;54.20;21.93;;;-4.90;99.90;;;;;;5039967;28;20316;-64
2024/01/18 07:17:07;;;;;;;45.30;20.77;;;-4.90;99.90;;;;;;5042966;28;20597;-63
2024/01/18 07:19:37;;;;;;;43.00;19.30;;;-4.90;99.90;;;;;;5044475;28;20650;-64
2024/01/18 07:22:07;;;;;;;45.07;19.50;;;-4.90;99.90;;;;;;5044316;28;20243;-64
2024/01/18 07:24:36;;;;;;;43.43;19.77;;;-4.90;99.90;;;;;;5022460;28;20322;-64
2024/01/18 07:27:09;;;;;;;42.33;20.07;;;-5.00;99.90;;;;;;5027956;28;20224;-64
2024/01/18 07:29:37;;;;;;;44.80;19.23;;;-5.00;99.90;;;;;;5040913;28;20278;-64
2024/01/18 07:32:06;;;;;;;46.17;18.87;;;-5.00;99.90;;;;;;5040578;28;20204;-64
2024/01/18 07:34:36;;;;;;;38.03;17.53;;;-5.00;99.90;;;;;;5043302;28;20257;-65
2024/01/18 07:37:05;;;;;;;39.23;19.20;;;-5.00;99.90;;;;;;5041836;28;20267;-64
2024/01/18 07:39:36;;;;;;;42.13;18.40;;;-5.00;99.90;;;;;;5045944;28;20303;-64
2024/01/18 07:42:05;;;;;;;37.90;18.67;;;-5.00;99.90;;;;;;5043392;28;20760;-64
2024/01/18 07:44:34;;;;;;;43.90;18.90;;;-5.00;99.90;;;;;;5045810;28;20216;-64
2024/01/18 07:47:02;;;;;;;44.17;19.90;;;-5.00;99.90;;;;;;5040684;28;20204;-62
2024/01/18 07:49:30;;;;;;;39.93;19.27;;;-5.00;99.90;;;;;;5056960;28;20300;-64
2024/01/18 07:52:00;;;;;;;44.17;17.73;;;-5.00;99.90;;;;;;5045480;28;20216;-64
2024/01/18 07:54:28;;;;;;;38.80;18.50;;;-5.00;99.90;;;;;;5042942;28;20224;-64
2024/01/18 07:56:56;;;;;;;53.17;19.03;;;-5.00;99.90;;;;;;5043222;28;20248;-64
2024/01/18 07:59:24;;;;;;;45.30;18.83;;;-5.00;99.90;;;;;;5042694;28;20273;-64
2024/01/18 08:01:53;;;;;;;38.70;18.33;;;-5.00;99.90;;;;;;5047108;28;20216;-64
2024/01/18 08:04:21;;;;;;;38.57;18.57;;;-5.00;99.90;;;;;;5039259;28;20753;-64
2024/01/18 08:06:50;;;;;;;45.70;18.47;;;-5.00;99.90;;;;;;5039316;28;20219;-64
2024/01/18 08:09:20;;;;;;;38.03;18.00;;;-5.00;99.90;;;;;;5042341;28;20231;-64
2024/01/18 08:11:49;;;;;;;41.70;18.23;;;-4.90;99.90;;;;;;5043907;28;20271;-64
2024/01/18 08:14:17;;;;;;;36.07;17.73;;;-5.00;99.90;;;;;;5042658;28;20702;-64
2024/01/18 08:16:46;;;;;;;38.37;17.97;;;-5.00;99.90;;;;;;5043518;28;20619;-64
2024/01/18 08:19:14;;;;;;;38.50;17.63;;;-5.00;99.90;;;;;;5041390;28;20229;-64
2024/01/18 08:21:44;;;;;;;39.97;17.80;;;-4.90;99.90;;;;;;5041409;28;20229;-64
2024/01/18 08:24:12;;;;;;;39.80;18.73;;;-4.80;99.90;;;;;;5040834;28;20251;-64
2024/01/18 08:26:43;;;;;;;37.60;18.03;;;-4.70;99.90;;;;;;5045154;28;20224;-64
2024/01/18 08:29:12;;;;;;;40.83;19.83;;;-4.50;99.90;;;;;;5043319;28;20219;-64
2024/01/18 08:31:40;;;;;;;33.97;18.53;;;-4.30;99.90;;;;;;5036728;28;20200;-65
2024/01/18 08:34:09;;;;;;;42.13;18.53;;;-4.20;99.90;;;;;;5039756;28;20252;-64
2024/01/18 08:36:38;;;;;;;34.10;17.50;;;-4.10;99.90;;;;;;5039919;28;20304;-64
2024/01/18 08:39:07;;;;;;;39.23;18.80;;;-4.00;99.90;;;;;;5037903;28;20216;-64
2024/01/18 08:41:36;;;;;;;36.67;18.77;;;-3.90;99.90;;;;;;5041369;28;20302;-64
2024/01/18 08:44:06;;;;;;;33.00;17.17;;;-3.90;99.90;;;;;;5040135;28;20185;-64
2024/01/18 08:46:34;;;;;;;39.33;18.63;;;-3.90;99.90;;;;;;5044560;28;20193;-64
2024/01/18 08:49:02;;;;;;;47.83;20.70;;;-3.80;99.90;;;;;;5039261;28;20396;-65
2024/01/18 08:51:30;;;;;;;51.90;20.60;;;-3.80;99.90;;;;;;5041124;28;21983;-64
2024/01/18 08:53:59;;;;;;;64.23;23.17;;;-3.70;99.90;;;;;;5044753;28;20217;-65
2024/01/18 08:56:27;;;;;;;66.23;24.77;;;-3.50;99.90;;;;;;5042961;28;20220;-64
2024/01/18 08:58:59;;;;;;;75.20;26.03;;;-3.30;99.90;;;;;;5042310;28;20189;-65
2024/01/18 09:01:28;;;;;;;97.80;30.67;;;-3.10;99.90;;;;;;5040817;28;20224;-65
2024/01/18 09:03:57;;;;;;;70.77;26.60;;;-2.90;99.90;;;;;;5040358;28;20243;-65
2024/01/18 09:06:25;;;;;;;68.57;24.73;;;-2.70;99.90;;;;;;5038742;28;20217;-65
2024/01/18 09:08:54;;;;;;;68.40;26.27;;;-2.60;99.90;;;;;;5041839;28;20224;-65
2024/01/18 09:11:22;;;;;;;50.93;22.87;;;-2.60;99.90;;;;;;5042777;28;20220;-65
2024/01/18 09:13:51;;;;;;;53.80;22.67;;;-2.50;99.90;;;;;;5046973;28;20225;-65
2024/01/18 09:16:21;;;;;;;56.40;23.60;;;-2.40;99.90;;;;;;5058181;28;20236;-65
2024/01/18 09:18:51;;;;;;;51.73;23.43;;;-2.30;99.90;;;;;;5042373;28;20225;-65
2024/01/18 09:21:41;;;;;;;52.20;21.67;;;-2.20;99.90;;;;;;5046448;28;20220;-64
2024/01/18 09:24:10;;;;;;;47.53;19.77;;;-2.00;99.90;;;;;;5044716;28;20319;-64
2024/01/18 09:26:38;;;;;;;39.03;18.67;;;-1.90;99.90;;;;;;5045482;28;20227;-64
2024/01/18 09:29:06;;;;;;;31.83;18.07;;;-1.80;99.90;;;;;;5056845;28;20204;-64
2024/01/18 09:31:35;;;;;;;32.97;17.93;;;-1.60;99.90;;;;;;5042605;28;20193;-65
2024/01/18 09:34:11;;;;;;;30.27;17.63;;;-1.50;99.90;;;;;;5041852;28;20216;-64
2024/01/18 09:36:40;;;;;;;33.03;17.23;;;-1.30;99.90;;;;;;5046646;28;20323;-64
2024/01/18 09:39:15;;;;;;;27.93;15.53;;;-1.10;99.90;;;;;;5044781;28;20209;-65
2024/01/18 09:41:49;;;;;;;33.20;16.97;;;-0.90;99.90;;;;;;5045960;28;20247;-64
2024/01/18 09:44:23;;;;;;;31.50;16.83;;;-0.70;99.90;;;;;;5045251;28;20204;-64
2024/01/18 09:46:52;;;;;;;33.63;16.33;;;-0.40;99.90;;;;;;5047951;28;20193;-64
2024/01/18 09:49:22;;;;;;;33.60;15.73;;;-0.20;99.90;;;;;;5045481;28;20876;-64
2024/01/18 09:51:51;;;;;;;27.13;14.10;;;0.10;99.90;;;;;;5040788;28;20221;-64
2024/01/18 09:54:19;;;;;;;22.03;13.80;;;0.30;99.90;;;;;;5042465;28;20294;-64
2024/01/18 09:56:52;;;;;;;25.50;14.07;;;0.50;99.90;;;;;;5041800;28;20224;-64
2024/01/18 09:59:22;;;;;;;31.67;16.90;;;0.70;99.90;;;;;;5040445;28;20333;-62
2024/01/18 10:01:51;;;;;;;33.30;14.60;;;1.00;99.90;;;;;;5045290;28;20200;-62
2024/01/18 10:04:22;;;;;;;24.07;11.50;;;1.30;99.90;;;;;;5044063;28;20224;-62
2024/01/18 10:06:50;;;;;;;14.60;10.33;;;1.60;99.90;;;;;;5040402;28;20224;-63
2024/01/18 10:09:19;;;;;;;16.20;10.00;;;2.00;99.90;;;;;;5043096;28;20245;-63
2024/01/18 10:11:47;;;;;;;14.00;9.47;;;2.40;99.90;;;;;;5042135;28;20225;-63
2024/01/18 10:14:15;;;;;;;15.23;8.80;;;2.80;99.90;;;;;;5042472;28;20209;-62
2024/01/18 10:16:44;;;;;;;14.37;7.70;;;3.20;99.90;;;;;;5046003;28;20646;-63
2024/01/18 10:19:14;;;;;;;16.63;9.67;;;3.70;99.90;;;;;;5040587;28;20308;-63
2024/01/18 10:21:47;;;;;;;37.90;14.37;;;4.20;99.90;;;;;;5042150;28;20293;-62
2024/01/18 10:24:17;;;;;;;33.80;12.33;;;4.50;99.90;;;;;;5044778;28;20221;-62
2024/01/18 10:26:46;;;;;;;14.43;7.87;;;4.50;99.90;;;;;;5044314;28;20598;-62
2024/01/18 10:29:14;;;;;;;10.93;7.27;;;4.40;95.00;;;;;;5044264;28;20201;-63
2024/01/18 10:31:43;;;;;;;14.47;9.23;;;4.10;96.20;;;;;;5046498;28;20207;-62
2024/01/18 10:34:11;;;;;;;13.03;7.37;;;3.80;99.90;;;;;;5042968;28;20224;-62
2024/01/18 10:36:39;;;;;;;10.10;6.93;;;3.50;99.90;;;;;;5044092;28;20228;-62
2024/01/18 10:39:18;;;;;;;8.77;6.57;;;3.60;99.90;;;;;;5041815;28;20616;-61
2024/01/18 10:41:46;;;;;;;10.40;6.43;;;3.80;99.90;;;;;;5043003;28;20299;-61
2024/01/18 10:44:15;;;;;;;9.73;5.77;;;4.00;99.90;;;;;;5042185;28;20185;-62
2024/01/18 10:46:44;;;;;;;6.37;5.03;;;3.90;99.90;;;;;;5044911;28;20193;-62
2024/01/18 10:49:13;;;;;;;7.67;5.43;;;3.70;99.90;;;;;;5045556;28;20213;-62
2024/01/18 10:51:41;;;;;;;16.60;8.20;;;3.60;99.90;;;;;;5045838;28;20664;-62
2024/01/18 10:54:10;;;;;;;12.20;6.77;;;3.70;99.90;;;;;;5043854;28;20311;-62
2024/01/18 10:56:59;;;;;;;9.23;5.10;;;3.90;99.90;;;;;;5041990;28;20271;-62
2024/01/18 10:59:29;;;;;;;5.03;4.23;;;4.20;99.90;;;;;;5043577;28;20278;-62
2024/01/18 11:01:59;;;;;;;4.33;3.93;;;4.50;99.90;;;;;;5042633;28;20215;-62
2024/01/18 11:04:28;;;;;;;3.83;3.47;;;4.70;94.00;;;;;;5038104;28;20290;-62
2024/01/18 11:06:57;;;;;;;5.63;3.23;;;4.60;92.80;;;;;;5044998;28;20224;-63
2024/01/18 11:09:29;;;;;;;5.90;3.37;;;4.30;95.10;;;;;;5040663;28;20328;-62
2024/01/18 11:12:00;;;;;;;4.27;3.57;;;4.00;97.90;;;;;;5041838;28;20248;-63
2024/01/18 11:14:30;;;;;;;4.50;3.47;;;3.80;99.90;;;;;;5041095;28;20311;-62
2024/01/18 11:17:06;;;;;;;9.43;5.37;;;3.90;99.90;;;;;;5045489;28;20211;-62
2024/01/18 11:19:40;;;;;;;6.43;4.10;;;3.90;99.90;;;;;;5043401;28;20239;-62
2024/01/18 11:22:11;;;;;;;4.10;3.20;;;4.00;99.90;;;;;;5043991;28;20266;-62
2024/01/18 11:24:39;;;;;;;7.37;2.57;;;4.10;99.90;;;;;;5041149;28;20267;-62
2024/01/18 11:27:21;;;;;;;3.40;2.70;;;4.10;99.90;;;;;;5043310;28;20216;-62
2024/01/18 11:29:50;;;;;;;3.37;3.07;;;4.20;99.90;;;;;;5042946;28;20240;-62
2024/01/18 11:32:20;;;;;;;7.90;3.00;;;4.20;99.90;;;;;;5043153;28;20192;-61
2024/01/18 11:34:49;;;;;;;9.10;4.40;;;4.30;99.90;;;;;;5040060;28;20220;-62
2024/01/18 11:37:25;;;;;;;6.60;4.20;;;4.50;99.90;;;;;;5034257;28;20312;-63
2024/01/18 11:40:00;;;;;;;7.77;4.33;;;4.70;99.90;;;;;;5041302;28;20216;-63
2024/01/18 11:42:31;;;;;;;4.83;3.03;;;4.80;99.90;;;;;;5047795;28;20227;-63
2024/01/18 11:45:07;;;;;;;3.27;2.83;;;5.00;99.90;;;;;;5044769;28;20224;-62
2024/01/18 11:47:44;;;;;;;3.43;2.53;;;5.20;99.90;;;;;;5043459;28;20239;-63
2024/01/18 11:50:19;;;;;;;3.97;2.37;;;5.40;95.10;;;;;;5039459;28;20216;-62
2024/01/18 11:52:50;;;;;;;2.83;2.60;;;5.40;90.30;;;;;;5040440;28;20664;-63
2024/01/18 11:55:19;;;;;;;3.60;2.50;;;5.30;93.10;;;;;;5043049;28;20216;-63
2024/01/18 11:57:49;;;;;;;5.40;2.67;;;5.00;89.70;;;;;;5042747;28;20228;-63
2024/01/18 12:00:18;;;;;;;3.33;2.37;;;4.70;94.20;;;;;;5043153;28;20216;-63
2024/01/18 12:02:46;;;;;;;3.90;2.73;;;4.40;99.90;;;;;;5034332;28;20216;-62
2024/01/18 12:05:16;;;;;;;2.90;2.70;;;4.40;99.90;;;;;;5039320;28;20200;-62
2024/01/18 12:07:44;;;;;;;4.77;2.97;;;4.60;99.90;;;;;;5041439;28;20695;-63
2024/01/18 12:10:15;;;;;;;3.63;2.10;;;4.70;99.90;;;;;;5036219;28;20266;-63
2024/01/18 12:12:44;;;;;;;2.80;2.10;;;4.80;99.90;;;;;;5040844;28;20224;-63
2024/01/18 12:15:18;;;;;;;3.97;2.30;;;4.90;99.90;;;;;;5042159;28;20216;-62
2024/01/18 12:17:48;;;;;;;3.43;2.23;;;4.80;96.00;;;;;;5041099;28;20239;-62
2024/01/18 12:20:17;;;;;;;10.57;2.20;;;4.60;98.60;;;;;;5044970;28;20544;-62
2024/01/18 12:22:46;;;;;;;4.30;2.70;;;4.60;99.90;;;;;;5041219;28;20205;-62
2024/01/18 12:25:14;;;;;;;2.60;2.30;;;4.70;99.90;;;;;;5041600;28;20307;-63
2024/01/18 12:27:44;;;;;;;3.87;2.40;;;4.80;99.90;;;;;;5041131;28;20597;-62
2024/01/18 12:30:13;;;;;;;2.40;2.20;;;4.80;99.90;;;;;;5041685;28;20238;-63
2024/01/18 12:32:44;;;;;;;3.67;2.13;;;4.90;99.90;;;;;;5041941;28;20225;-63
2024/01/18 12:35:12;;;;;;;3.87;2.20;;;4.90;99.90;;;;;;5038029;28;20225;-63
2024/01/18 12:37:40;;;;;;;9.10;2.27;;;5.00;99.90;;;;;;5044135;28;20543;-63
2024/01/18 12:40:11;;;;;;;2.63;1.90;;;5.00;99.90;;;;;;5035599;28;20217;-62
2024/01/18 12:42:39;;;;;;;2.43;1.87;;;5.00;99.90;;;;;;5040722;28;20221;-62